Time,TemperatureF,DewpointF,PressureIn,WindDirection,WindDirectionDegrees,WindSpeedMPH,WindSpeedGustMPH,Humidity,HourlyPrecipIn,Conditions,Clouds,dailyrainin,SoftwareType,DateUTC
2013-01-23 00:08:00,57.0,36.0,30.01,NNE,24,1.0,10.0,45,0.00,,,0.00,weatherlink.com 1.10,2013-01-23 08:08:00,
2013-01-23 00:23:00,56.8,34.0,30.01,NNE,25,2.0,11.0,43,0.00,,,0.00,weatherlink.com 1.10,2013-01-23 08:23:00,
2013-01-23 00:38:00,56.8,34.0,30.00,NNW,348,10.0,13.0,43,0.00,,,0.00,weatherlink.com 1.10,2013-01-23 08:38:00,
2013-01-23 00:53:00,56.9,33.0,29.99,NNE,12,4.0,12.0,41,0.00,,,0.00,weatherlink.com 1.10,2013-01-23 08:53:00,
2013-01-23 01:08:00,56.8,35.0,29.98,North,10,6.0,15.0,44,0.00,,,0.00,weatherlink.com 1.10,2013-01-23 09:08:00,
2013-01-23 01:23:00,57.1,34.0,29.97,NNE,13,6.0,14.0,42,0.00,,,0.00,weatherlink.com 1.10,2013-01-23 09:23:00,
2013-01-23 01:38:00,57.3,33.0,29.98,NNE,31,5.0,14.0,40,0.00,,,0.00,weatherlink.com 1.10,2013-01-23 09:38:00,
2013-01-23 01:53:00,57.2,33.0,29.98,North,355,7.0,12.0,41,0.00,,,0.00,weatherlink.com 1.10,2013-01-23 09:53:00,
2013-01-23 02:08:00,56.8,34.0,29.97,NNE,32,3.0,11.0,42,0.00,,,0.00,weatherlink.com 1.10,2013-01-23 10:08:00,
2013-01-23 02:23:00,57.3,34.0,29.97,NNE,30,6.0,17.0,42,0.00,,,0.00,weatherlink.com 1.10,2013-01-23 10:23:00,
2013-01-23 02:38:00,57.1,35.0,29.98,NNE,32,1.0,13.0,44,0.00,,,0.00,weatherlink.com 1.10,2013-01-23 10:38:00,
2013-01-23 02:54:00,56.2,35.0,29.98,NNE,29,7.0,12.0,46,0.00,,,0.00,weatherlink.com 1.10,2013-01-23 10:54:00,
2013-01-23 03:09:00,56.4,37.0,29.97,NNE,12,6.0,12.0,49,0.00,,,0.00,weatherlink.com 1.10,2013-01-23 11:09:00,
2013-01-23 03:24:00,56.3,36.0,29.96,NE,41,4.0,12.0,47,0.00,,,0.00,weatherlink.com 1.10,2013-01-23 11:24:00,
2013-01-23 03:39:00,54.8,38.0,29.97,North,5,5.0,10.0,54,0.00,,,0.00,weatherlink.com 1.10,2013-01-23 11:39:00,
2013-01-23 03:54:00,54.3,38.0,29.95,NE,34,3.0,12.0,54,0.00,,,0.00,weatherlink.com 1.10,2013-01-23 11:54:00,
2013-01-23 04:09:00,54.4,38.0,29.96,NNE,15,4.0,10.0,55,0.00,,,0.00,weatherlink.com 1.10,2013-01-23 12:09:00,
2013-01-23 04:24:00,54.8,37.0,29.97,North,5,6.0,13.0,52,0.00,,,0.00,weatherlink.com 1.10,2013-01-23 12:24:00,
2013-01-23 04:39:00,53.5,39.0,29.96,NNE,21,4.0,9.0,58,0.00,,,0.00,weatherlink.com 1.10,2013-01-23 12:39:00,
2013-01-23 04:54:00,53.1,39.0,29.94,North,355,7.0,14.0,60,0.00,,,0.00,weatherlink.com 1.10,2013-01-23 12:54:00,
2013-01-23 05:09:00,51.1,41.0,29.95,NNE,15,7.0,14.0,69,0.00,,,0.00,weatherlink.com 1.10,2013-01-23 13:09:00,
2013-01-23 05:24:00,50.4,42.0,29.93,NNE,32,3.0,14.0,74,0.01,,,0.01,weatherlink.com 1.10,2013-01-23 13:24:00,
2013-01-23 05:39:00,51.1,42.0,29.92,NNE,32,0.0,12.0,72,0.01,,,0.01,weatherlink.com 1.10,2013-01-23 13:39:00,
2013-01-23 05:54:00,51.7,41.0,29.92,North,355,4.0,12.0,66,0.01,,,0.01,weatherlink.com 1.10,2013-01-23 13:54:00,
2013-01-23 06:09:00,53.1,40.0,29.93,NNE,29,9.0,16.0,61,0.01,,,0.01,weatherlink.com 1.10,2013-01-23 14:09:00,
2013-01-23 06:24:00,54.0,39.0,29.92,North,360,6.0,14.0,58,0.00,,,0.01,weatherlink.com 1.10,2013-01-23 14:24:00,
2013-01-23 06:39:00,53.9,39.0,29.92,North,351,18.0,18.0,58,0.00,,,0.01,weatherlink.com 1.10,2013-01-23 14:39:00,
2013-01-23 06:54:00,55.5,37.0,29.91,North,355,5.0,15.0,50,0.00,,,0.01,weatherlink.com 1.10,2013-01-23 14:54:00,
2013-01-23 07:09:00,56.4,36.0,29.95,SSE,168,1.0,14.0,46,0.00,,,0.01,weatherlink.com 1.10,2013-01-23 15:09:00,
2013-01-23 07:24:00,55.0,40.0,29.94,NNE,28,1.0,5.0,57,0.00,,,0.01,weatherlink.com 1.10,2013-01-23 15:24:00,
2013-01-23 07:39:00,54.3,37.0,29.95,NW,323,1.0,5.0,53,0.00,,,0.01,weatherlink.com 1.10,2013-01-23 15:39:00,
2013-01-23 07:54:00,55.2,35.0,29.96,NW,325,0.0,5.0,47,0.00,,,0.01,weatherlink.com 1.10,2013-01-23 15:54:00,
2013-01-23 08:09:00,54.8,38.0,29.96,NNE,33,3.0,6.0,54,0.00,,,0.01,weatherlink.com 1.10,2013-01-23 16:09:00,
2013-01-23 08:24:00,54.8,40.0,29.98,NNE,24,0.0,6.0,57,0.00,,,0.01,weatherlink.com 1.10,2013-01-23 16:24:00,
2013-01-23 08:39:00,53.4,41.0,29.98,NNE,25,0.0,4.0,63,0.00,,,0.01,weatherlink.com 1.10,2013-01-23 16:39:00,
2013-01-23 08:54:00,53.9,40.0,29.98,NNE,24,1.0,6.0,59,0.00,,,0.01,weatherlink.com 1.10,2013-01-23 16:54:00,
2013-01-23 09:09:00,54.2,39.0,29.98,NNE,21,2.0,7.0,58,0.00,,,0.01,weatherlink.com 1.10,2013-01-23 17:09:00,
2013-01-23 09:24:00,55.2,40.0,29.98,NNE,30,5.0,9.0,56,0.00,,,0.01,weatherlink.com 1.10,2013-01-23 17:24:00,
2013-01-23 09:39:00,55.5,39.0,29.98,NNE,30,2.0,11.0,54,0.00,,,0.01,weatherlink.com 1.10,2013-01-23 17:39:00,
2013-01-23 09:54:00,55.6,39.0,29.99,North,5,4.0,10.0,54,0.00,,,0.01,weatherlink.com 1.10,2013-01-23 17:54:00,
2013-01-23 10:09:00,56.1,38.0,29.98,NNW,343,5.0,12.0,52,0.01,,,0.02,weatherlink.com 1.10,2013-01-23 18:09:00,
2013-01-23 10:24:00,56.8,38.0,29.98,North,5,6.0,12.0,50,0.01,,,0.02,weatherlink.com 1.10,2013-01-23 18:24:00,
2013-01-23 10:39:00,57.0,37.0,29.99,ENE,58,8.0,13.0,48,0.01,,,0.02,weatherlink.com 1.10,2013-01-23 18:39:00,
2013-01-23 10:54:00,58.1,38.0,29.99,NNW,331,7.0,12.0,47,0.01,,,0.02,weatherlink.com 1.10,2013-01-23 18:54:00,
2013-01-23 11:09:00,57.3,38.0,30.00,NNE,32,9.0,16.0,49,0.00,,,0.02,weatherlink.com 1.10,2013-01-23 19:09:00,
2013-01-23 11:24:00,57.5,38.0,30.00,NNE,15,2.0,11.0,48,0.00,,,0.02,weatherlink.com 1.10,2013-01-23 19:24:00,
2013-01-23 11:39:00,57.8,36.0,30.00,SSE,152,0.0,11.0,45,0.00,,,0.02,weatherlink.com 1.10,2013-01-23 19:39:00,
2013-01-23 11:54:00,58.4,35.0,30.01,NNE,28,0.0,11.0,42,0.00,,,0.02,weatherlink.com 1.10,2013-01-23 19:54:00,
2013-01-23 12:09:00,56.7,38.0,30.02,SW,220,10.0,15.0,50,0.00,,,0.02,weatherlink.com 1.10,2013-01-23 20:09:00,
2013-01-23 12:24:00,52.4,42.0,30.03,South,184,4.0,13.0,69,0.02,,,0.04,weatherlink.com 1.10,2013-01-23 20:24:00,
2013-01-23 12:40:00,50.3,45.0,30.02,North,355,2.0,6.0,81,0.04,,,0.06,weatherlink.com 1.10,2013-01-23 20:40:00,
2013-01-23 12:55:00,49.1,45.0,30.01,NNE,17,4.0,9.0,86,0.05,,,0.07,weatherlink.com 1.10,2013-01-23 20:55:00,
2013-01-23 13:10:00,49.1,45.0,30.01,NNE,19,3.0,10.0,86,0.06,,,0.08,weatherlink.com 1.10,2013-01-23 21:10:00,
2013-01-23 13:25:00,48.7,45.0,30.01,North,9,5.0,10.0,88,0.06,,,0.10,weatherlink.com 1.10,2013-01-23 21:25:00,
2013-01-23 13:40:00,48.5,46.0,30.01,ENE,57,4.0,8.0,90,0.07,,,0.13,weatherlink.com 1.10,2013-01-23 21:40:00,
2013-01-23 13:55:00,48.5,46.0,30.00,North,355,4.0,8.0,91,0.09,,,0.16,weatherlink.com 1.10,2013-01-23 21:55:00,
2013-01-23 14:10:00,48.5,47.0,30.00,NNE,24,7.0,12.0,93,0.10,,,0.18,weatherlink.com 1.10,2013-01-23 22:10:00,
2013-01-23 14:25:00,48.6,47.0,30.00,NW,317,3.0,11.0,93,0.10,,,0.20,weatherlink.com 1.10,2013-01-23 22:25:00,
2013-01-23 14:40:00,48.8,47.0,30.01,NE,49,1.0,12.0,93,0.09,,,0.22,weatherlink.com 1.10,2013-01-23 22:40:00,
2013-01-23 14:55:00,49.3,48.0,30.02,NNE,13,3.0,7.0,94,0.07,,,0.23,weatherlink.com 1.10,2013-01-23 22:55:00,
2013-01-23 15:10:00,49.3,48.0,30.01,NNE,32,3.0,12.0,94,0.06,,,0.24,weatherlink.com 1.10,2013-01-23 23:10:00,
2013-01-23 15:25:00,49.2,48.0,30.01,NE,36,3.0,13.0,94,0.05,,,0.25,weatherlink.com 1.10,2013-01-23 23:25:00,
2013-01-23 15:40:00,49.0,47.0,30.02,NNE,12,4.0,13.0,94,0.04,,,0.26,weatherlink.com 1.10,2013-01-23 23:40:00,
2013-01-23 15:55:00,48.8,47.0,30.02,NNE,15,4.0,13.0,94,0.04,,,0.27,weatherlink.com 1.10,2013-01-23 23:55:00,
2013-01-23 16:10:00,48.8,47.0,30.02,NNE,20,1.0,15.0,94,0.04,,,0.28,weatherlink.com 1.10,2013-01-24 00:10:00,
2013-01-23 16:25:00,49.0,47.0,30.02,NE,36,3.0,14.0,94,0.04,,,0.29,weatherlink.com 1.10,2013-01-24 00:25:00,
2013-01-23 16:40:00,49.0,47.0,30.03,North,5,3.0,12.0,94,0.04,,,0.30,weatherlink.com 1.10,2013-01-24 00:40:00,
2013-01-23 16:55:00,49.0,48.0,30.03,NE,46,3.0,12.0,95,0.03,,,0.30,weatherlink.com 1.10,2013-01-24 00:55:00,
2013-01-23 17:10:00,49.0,48.0,30.03,NNE,18,7.0,12.0,95,0.03,,,0.31,weatherlink.com 1.10,2013-01-24 01:10:00,
2013-01-23 17:25:00,49.0,48.0,30.02,NNE,32,8.0,13.0,95,0.03,,,0.32,weatherlink.com 1.10,2013-01-24 01:25:00,
2013-01-23 17:40:00,48.9,48.0,30.03,NNE,28,3.0,14.0,95,0.02,,,0.32,weatherlink.com 1.10,2013-01-24 01:40:00,
2013-01-23 17:55:00,49.1,48.0,30.04,NE,36,1.0,11.0,95,0.01,,,0.32,weatherlink.com 1.10,2013-01-24 01:55:00,
2013-01-23 18:10:00,49.3,48.0,30.04,NNE,26,1.0,13.0,95,0.01,,,0.32,weatherlink.com 1.10,2013-01-24 02:10:00,
2013-01-23 18:25:00,49.4,48.0,30.04,NNE,27,4.0,12.0,95,0.00,,,0.32,weatherlink.com 1.10,2013-01-24 02:25:00,
2013-01-23 18:40:00,49.7,48.0,30.04,NNE,22,10.0,15.0,95,0.01,,,0.33,weatherlink.com 1.10,2013-01-24 02:40:00,
2013-01-23 18:55:00,50.3,49.0,30.04,NE,40,0.0,14.0,94,0.01,,,0.33,weatherlink.com 1.10,2013-01-24 02:55:00,
2013-01-23 19:10:00,50.7,49.0,30.05,NNE,21,1.0,14.0,94,0.01,,,0.33,weatherlink.com 1.10,2013-01-24 03:10:00,
2013-01-23 19:25:00,50.5,49.0,30.05,NNE,22,7.0,15.0,93,0.01,,,0.33,weatherlink.com 1.10,2013-01-24 03:25:00,
2013-01-23 19:40:00,50.6,49.0,30.05,NNE,28,4.0,18.0,93,0.00,,,0.33,weatherlink.com 1.10,2013-01-24 03:40:00,
2013-01-23 19:55:00,51.1,49.0,30.04,NE,40,3.0,17.0,93,0.00,,,0.33,weatherlink.com 1.10,2013-01-24 03:55:00,
2013-01-23 20:10:00,50.9,49.0,30.04,North,5,6.0,15.0,93,0.00,,,0.33,weatherlink.com 1.10,2013-01-24 04:10:00,
2013-01-23 20:25:00,50.8,49.0,30.05,NNE,21,4.0,14.0,93,0.00,,,0.33,weatherlink.com 1.10,2013-01-24 04:25:00,
2013-01-23 20:40:00,50.8,49.0,30.06,North,360,6.0,18.0,93,0.00,,,0.33,weatherlink.com 1.10,2013-01-24 04:40:00,
2013-01-23 20:55:00,51.0,49.0,30.06,NE,46,0.0,15.0,93,0.01,,,0.34,weatherlink.com 1.10,2013-01-24 04:55:00,
2013-01-23 21:10:00,50.6,49.0,30.06,NE,35,7.0,15.0,93,0.02,,,0.35,weatherlink.com 1.10,2013-01-24 05:10:00,
2013-01-23 21:25:00,50.8,49.0,30.07,NNE,26,5.0,13.0,94,0.03,,,0.36,weatherlink.com 1.10,2013-01-24 05:25:00,
2013-01-23 21:40:00,50.9,49.0,30.07,NNE,19,11.0,15.0,94,0.03,,,0.36,weatherlink.com 1.10,2013-01-24 05:40:00,
2013-01-23 21:55:00,51.1,49.0,30.08,NNE,29,0.0,12.0,93,0.03,,,0.37,weatherlink.com 1.10,2013-01-24 05:55:00,
2013-01-23 22:10:00,51.1,50.0,30.07,North,350,3.0,11.0,94,0.03,,,0.38,weatherlink.com 1.10,2013-01-24 06:10:00,
2013-01-23 22:25:00,51.0,49.0,30.08,NNE,22,5.0,11.0,94,0.02,,,0.38,weatherlink.com 1.10,2013-01-24 06:25:00,
2013-01-23 22:40:00,50.8,49.0,30.07,NNW,333,7.0,12.0,94,0.02,,,0.38,weatherlink.com 1.10,2013-01-24 06:40:00,
2013-01-23 22:55:00,50.5,49.0,30.07,NNE,15,6.0,12.0,95,0.01,,,0.38,weatherlink.com 1.10,2013-01-24 06:55:00,
2013-01-23 23:10:00,50.4,49.0,30.07,NNE,29,6.0,8.0,95,0.00,,,0.38,weatherlink.com 1.10,2013-01-24 07:10:00,
2013-01-23 23:25:00,50.7,49.0,30.08,NE,42,2.0,10.0,95,0.00,,,0.38,weatherlink.com 1.10,2013-01-24 07:25:00,
2013-01-23 23:40:00,51.0,49.0,30.08,NE,34,3.0,10.0,94,0.00,,,0.38,weatherlink.com 1.10,2013-01-24 07:40:00,
2013-01-23 23:55:00,51.0,49.0,30.08,NNE,15,7.0,11.0,94,0.00,,,0.38,weatherlink.com 1.10,2013-01-24 07:55:00,